Time;durP1;ratioP1;P1;durP2;ratioP2;P2;SDS_P1;SDS_P2;PMS_P1;PMS_P2;Temp;Humidity;BMP_temperature;BMP_pressure;BME280_temperature;BME280_humidity;BME280_pressure;Samples;Min_cycle;Max_cycle;Signal;HPM_P1;HPM_P2
2023/04/16 00:01:48;;;;;;;0.30;0.30;;;;;;;15.36;69.95;102204.25;5030987;28;20026;-63
2023/04/16 00:04:13;;;;;;;0.30;0.30;;;;;;;14.16;72.77;102204.50;5031499;28;20016;-63
2023/04/16 00:06:39;;;;;;;0.20;0.20;;;;;;;14.04;74.68;102207.03;5031050;28;20108;-63
2023/04/16 00:09:04;;;;;;;0.30;0.30;;;;;;;14.76;71.89;102209.34;5029288;28;20509;-64
2023/04/16 00:11:29;;;;;;;0.20;0.20;;;;;;;14.27;72.98;102211.91;5031316;28;20029;-63
2023/04/16 00:13:55;;;;;;;0.30;0.30;;;;;;;13.89;75.49;102213.75;5030587;28;20044;-64
2023/04/16 00:16:20;;;;;;;0.30;0.30;;;;;;;13.89;75.48;102216.47;5033877;28;20037;-64
2023/04/16 00:18:46;;;;;;;0.30;0.30;;;;;;;14.31;74.38;102209.66;5034587;28;20085;-63
2023/04/16 00:21:11;;;;;;;0.25;0.25;;;;;;;14.04;75.17;102217.00;5034309;28;20563;-65
2023/04/16 00:23:37;;;;;;;0.30;0.30;;;;;;;14.67;71.51;102217.94;5032505;28;20408;-64
2023/04/16 00:26:02;;;;;;;0.30;0.30;;;;;;;14.43;72.12;102214.16;5034192;28;20025;-64
2023/04/16 00:28:28;;;;;;;0.10;0.10;;;;;;;14.10;73.77;102218.88;5033131;28;20136;-65
2023/04/16 00:30:54;;;;;;;0.20;0.20;;;;;;;14.90;71.35;102218.19;5034165;28;20128;-65
2023/04/16 00:33:19;;;;;;;0.20;0.20;;;;;;;14.52;72.58;102214.72;5035085;28;20394;-64
2023/04/16 00:35:46;;;;;;;0.30;0.30;;;;;;;14.82;70.79;102213.88;5033661;28;20034;-64
2023/04/16 00:38:11;;;;;;;0.20;0.20;;;;;;;14.45;72.92;102222.03;5034292;28;20045;-65
2023/04/16 00:40:37;;;;;;;0.30;0.30;;;;;;;14.55;73.01;102223.22;5034582;28;20040;-65
2023/04/16 00:43:03;;;;;;;0.10;0.10;;;;;;;14.84;71.44;102225.31;5033887;28;20030;-64
2023/04/16 00:45:28;;;;;;;0.30;0.30;;;;;;;14.92;70.52;102221.50;5033916;28;20041;-64
2023/04/16 00:47:55;;;;;;;0.20;0.20;;;;;;;14.17;74.16;102218.84;5034160;28;20037;-64
2023/04/16 00:50:20;;;;;;;0.30;0.30;;;;;;;14.39;73.30;102214.78;5033842;28;20037;-64
2023/04/16 00:52:47;;;;;;;0.50;0.50;;;;;;;14.81;71.76;102222.22;5033727;28;20033;-64
2023/04/16 00:55:14;;;;;;;0.40;0.40;;;;;;;15.42;69.02;102223.19;5033971;28;20045;-63
2023/04/16 00:57:40;;;;;;;0.30;0.30;;;;;;;14.27;72.74;102225.44;5031517;28;20044;-64
2023/04/16 01:00:06;;;;;;;0.30;0.30;;;;;;;14.84;70.78;102213.66;5034190;28;20041;-63
2023/04/16 01:02:32;;;;;;;0.20;0.20;;;;;;;14.29;73.25;102214.47;5034240;28;20033;-63
2023/04/16 01:04:59;;;;;;;0.40;0.40;;;;;;;14.54;73.16;102218.03;5034035;28;20030;-64
2023/04/16 01:07:25;;;;;;;0.30;0.30;;;;;;;14.91;71.11;102214.44;5034604;28;20505;-64
2023/04/16 01:09:50;;;;;;;0.30;0.30;;;;;;;14.67;71.99;102213.38;5034042;28;20120;-64
2023/04/16 01:12:15;;;;;;;0.20;0.20;;;;;;;14.91;70.52;102223.41;5034142;28;20034;-63
2023/04/16 01:14:41;;;;;;;0.30;0.30;;;;;;;14.40;72.12;102219.16;5033622;28;20030;-64
2023/04/16 01:17:06;;;;;;;0.30;0.30;;;;;;;14.84;71.44;102221.78;5036408;28;20116;-65
2023/04/16 01:19:35;;;;;;;0.30;0.30;;;;;;;15.32;69.00;102217.44;5034266;28;20108;-65
2023/04/16 01:22:00;;;;;;;0.25;0.25;;;;;;;14.65;70.53;102220.03;5033355;28;20136;-64
2023/04/16 01:24:25;;;;;;;0.22;0.22;;;;;;;14.71;71.40;102220.00;5033548;28;20196;-65
2023/04/16 01:26:51;;;;;;;0.20;0.20;;;;;;;14.37;73.33;102219.63;5033172;28;20029;-64
2023/04/16 01:29:16;;;;;;;0.10;0.10;;;;;;;14.31;73.50;102209.66;5033787;28;20163;-64
2023/04/16 01:31:41;;;;;;;0.30;0.30;;;;;;;15.54;68.99;102221.41;5034125;28;20030;-65
2023/04/16 01:34:07;;;;;;;0.40;0.40;;;;;;;14.84;71.16;102219.06;5035946;28;20573;-64
2023/04/16 01:36:32;;;;;;;0.32;0.32;;;;;;;15.38;69.25;102223.81;5033282;28;20095;-65
2023/04/16 01:38:57;;;;;;;0.20;0.20;;;;;;;15.03;69.40;102218.09;5033409;28;20116;-65
2023/04/16 01:41:23;;;;;;;0.43;0.43;;;;;;;15.24;69.73;102225.84;5033527;28;20104;-64
2023/04/16 01:43:48;;;;;;;0.20;0.20;;;;;;;14.77;71.11;102221.84;5033590;28;20033;-65
2023/04/16 01:46:16;;;;;;;0.32;0.32;;;;;;;15.56;68.05;102222.03;5033614;28;20021;-65
2023/04/16 01:48:42;;;;;;;0.30;0.30;;;;;;;15.09;69.67;102219.94;5033328;28;20037;-65
2023/04/16 01:51:08;;;;;;;0.20;0.20;;;;;;;15.29;69.38;102220.56;5033195;28;20099;-63
2023/04/16 01:53:34;;;;;;;0.20;0.20;;;;;;;15.74;66.90;102211.16;5033239;28;20045;-64
2023/04/16 01:55:59;;;;;;;0.30;0.30;;;;;;;15.15;70.01;102213.63;5032638;28;20148;-64
2023/04/16 01:58:27;;;;;;;0.10;0.10;;;;;;;14.43;72.84;102214.16;5033893;28;20057;-64
2023/04/16 02:00:53;;;;;;;0.20;0.20;;;;;;;14.22;73.72;102222.56;5031157;28;20041;-62
2023/04/16 02:03:18;;;;;;;0.30;0.30;;;;;;;14.82;71.33;102221.16;5033140;28;20044;-64
2023/04/16 02:05:44;;;;;;;0.25;0.25;;;;;;;15.11;70.59;102211.59;5033084;28;20176;-63
2023/04/16 02:08:09;;;;;;;0.28;0.28;;;;;;;15.14;69.16;102216.53;5033170;28;20144;-63
2023/04/16 02:10:34;;;;;;;0.40;0.40;;;;;;;15.23;70.56;102213.34;5033404;28;20026;-65
2023/04/16 02:12:59;;;;;;;0.30;0.30;;;;;;;15.66;68.16;102216.88;5032848;28;20121;-65
2023/04/16 02:15:25;;;;;;;0.22;0.22;;;;;;;15.51;68.53;102221.00;5033685;28;20489;-65
2023/04/16 02:17:55;;;;;;;0.40;0.40;;;;;;;14.57;70.33;102217.59;5052510;28;20072;-64
2023/04/16 02:20:20;;;;;;;0.30;0.30;;;;;;;14.90;70.95;102221.75;5052897;28;20610;-64
2023/04/16 02:22:46;;;;;;;0.30;0.30;;;;;;;14.56;72.20;102216.78;5052701;28;20021;-64
2023/04/16 02:25:13;;;;;;;0.30;0.30;;;;;;;15.06;68.68;102211.41;5052892;28;20029;-63
2023/04/16 02:27:38;;;;;;;0.32;0.32;;;;;;;16.00;66.19;102214.66;5052583;28;20504;-64
2023/04/16 02:30:04;;;;;;;0.20;0.20;;;;;;;14.88;69.78;102217.59;5051966;28;20037;-65
2023/04/16 02:32:29;;;;;;;0.28;0.28;;;;;;;14.46;71.98;102219.13;5031048;28;20075;-64
2023/04/16 02:34:56;;;;;;;0.20;0.20;;;;;;;15.26;68.19;102212.06;5034601;28;20029;-65
2023/04/16 02:37:21;;;;;;;0.20;0.20;;;;;;;14.79;69.60;102213.50;5032842;28;20112;-65
2023/04/16 02:39:48;;;;;;;0.22;0.22;;;;;;;14.95;68.96;102216.50;5031566;28;20128;-65
2023/04/16 02:42:15;;;;;;;0.20;0.20;;;;;;;15.05;69.82;102207.06;5032379;28;20041;-64
2023/04/16 02:44:40;;;;;;;0.30;0.30;;;;;;;15.64;67.60;102207.34;5032366;28;20030;-65
2023/04/16 02:47:06;;;;;;;0.32;0.32;;;;;;;15.35;68.67;102218.88;5032368;28;20041;-65
2023/04/16 02:49:31;;;;;;;0.30;0.30;;;;;;;15.37;67.87;102223.00;5032612;28;20029;-64
2023/04/16 02:51:56;;;;;;;0.28;0.28;;;;;;;15.50;67.28;102222.06;5031934;28;20136;-64
2023/04/16 02:54:22;;;;;;;0.20;0.20;;;;;;;15.23;67.82;102223.34;5031749;28;20048;-63
2023/04/16 02:56:47;;;;;;;0.25;0.25;;;;;;;14.92;68.87;102222.34;5032042;28;20073;-63
2023/04/16 02:59:12;;;;;;;0.30;0.30;;;;;;;15.07;68.60;102221.19;5032305;28;20034;-64
2023/04/16 03:01:38;;;;;;;0.30;0.30;;;;;;;15.25;67.77;102224.75;5032535;28;20465;-64
2023/04/16 03:04:03;;;;;;;0.25;0.25;;;;;;;15.63;67.10;102230.06;5032204;28;20061;-64
2023/04/16 03:06:30;;;;;;;0.25;0.25;;;;;;;14.85;68.84;102232.41;5031883;28;20041;-64
2023/04/16 03:08:55;;;;;;;0.30;0.30;;;;;;;15.93;65.85;102230.16;5030674;28;20426;-64
2023/04/16 03:11:20;;;;;;;0.20;0.20;;;;;;;15.70;67.10;102228.13;5031812;28;20079;-63
2023/04/16 03:13:46;;;;;;;0.10;0.10;;;;;;;15.60;67.19;102231.34;5031755;28;20469;-64
2023/04/16 03:16:11;;;;;;;0.10;0.10;;;;;;;15.24;68.75;102227.69;5039286;28;20510;-64
2023/04/16 03:18:37;;;;;;;0.40;0.40;;;;;;;15.57;66.23;102239.09;5051431;28;20051;-64
2023/04/16 03:21:02;;;;;;;0.30;0.30;;;;;;;15.34;67.47;102239.69;5051568;28;20090;-64
2023/04/16 03:23:28;;;;;;;0.20;0.20;;;;;;;14.98;69.43;102235.00;5051304;28;20033;-63
2023/04/16 03:25:53;;;;;;;0.20;0.20;;;;;;;15.73;66.82;102244.75;5051583;28;20428;-65
2023/04/16 03:28:18;;;;;;;0.25;0.25;;;;;;;15.59;66.77;102242.41;5034660;28;20102;-63
2023/04/16 03:30:50;;;;;;;0.13;0.13;;;;;;;15.50;66.98;102244.59;5030022;28;20049;-64
2023/04/16 03:33:16;;;;;;;0.20;0.20;;;;;;;15.02;69.65;102248.13;5031017;28;20064;-64
2023/04/16 03:35:41;;;;;;;0.20;0.20;;;;;;;15.58;66.94;102249.72;5032346;28;20037;-64
2023/04/16 03:38:06;;;;;;;0.20;0.20;;;;;;;15.55;66.28;102249.31;5030663;28;20413;-65
2023/04/16 03:40:32;;;;;;;0.22;0.22;;;;;;;15.68;66.02;102244.59;5031301;28;20507;-64
2023/04/16 03:42:57;;;;;;;0.30;0.30;;;;;;;15.40;66.19;102240.69;5030697;28;20581;-64
2023/04/16 03:45:22;;;;;;;0.20;0.20;;;;;;;14.79;68.81;102246.81;5030700;28;20065;-63
2023/04/16 03:47:51;;;;;;;0.20;0.20;;;;;;;15.12;68.60;102248.44;5030512;28;20045;-64
2023/04/16 03:50:18;;;;;;;0.20;0.20;;;;;;;15.68;66.40;102250.00;5030204;28;20037;-64
2023/04/16 03:52:43;;;;;;;0.20;0.20;;;;;;;15.44;66.67;102253.59;5030561;28;20040;-64
2023/04/16 03:55:09;;;;;;;0.40;0.40;;;;;;;15.42;66.61;102255.72;5030109;28;20045;-64
2023/04/16 03:57:34;;;;;;;0.30;0.30;;;;;;;14.95;69.13;102257.13;5030445;28;20516;-64
2023/04/16 04:00:00;;;;;;;0.30;0.30;;;;;;;14.72;69.04;102259.53;5030617;28;20060;-64
2023/04/16 04:02:25;;;;;;;0.40;0.40;;;;;;;15.22;67.48;102262.31;5028878;28;20048;-63
2023/04/16 04:04:51;;;;;;;0.20;0.20;;;;;;;14.84;69.55;102257.78;5030482;28;20053;-64
2023/04/16 04:07:16;;;;;;;0.35;0.35;;;;;;;14.69;70.57;102259.16;5030819;28;20022;-64
2023/04/16 04:09:42;;;;;;;0.32;0.32;;;;;;;14.80;69.55;102264.69;5030531;28;20061;-64
2023/04/16 04:12:08;;;;;;;0.30;0.30;;;;;;;15.06;68.40;102265.53;5030544;28;20488;-65
2023/04/16 04:14:38;;;;;;;0.30;0.30;;;;;;;14.95;68.57;102267.09;5030384;28;20081;-64
2023/04/16 04:17:04;;;;;;;0.20;0.20;;;;;;;14.65;70.10;102263.34;5045317;28;20025;-64
2023/04/16 04:19:29;;;;;;;0.13;0.13;;;;;;;15.40;67.33;102274.03;5051402;28;20035;-64
2023/04/16 04:21:55;;;;;;;0.30;0.30;;;;;;;15.39;68.09;102269.66;5050895;28;20400;-64
2023/04/16 04:24:20;;;;;;;0.10;0.10;;;;;;;14.09;72.45;102274.78;5035758;28;20108;-64
2023/04/16 04:26:46;;;;;;;0.30;0.30;;;;;;;15.40;67.64;102267.78;5031133;28;20041;-64
2023/04/16 04:29:12;;;;;;;0.30;0.30;;;;;;;15.02;68.73;102269.78;5030995;28;20461;-64
2023/04/16 04:31:37;;;;;;;0.30;0.30;;;;;;;15.17;68.52;102278.41;5030255;28;20029;-64
2023/04/16 04:34:03;;;;;;;0.30;0.30;;;;;;;15.14;68.29;102273.41;5033411;28;20036;-64
2023/04/16 04:36:28;;;;;;;0.20;0.20;;;;;;;15.10;68.02;102273.03;5030881;28;20095;-64
2023/04/16 04:38:53;;;;;;;0.10;0.10;;;;;;;14.97;68.54;102289.38;5030891;28;20157;-64
2023/04/16 04:41:20;;;;;;;0.30;0.30;;;;;;;15.00;68.39;102288.13;5031064;28;20033;-65
2023/04/16 04:43:45;;;;;;;0.20;0.20;;;;;;;15.52;67.00;102293.13;5031368;28;20052;-65
2023/04/16 04:46:11;;;;;;;0.30;0.30;;;;;;;15.16;68.04;102298.38;5030920;28;20057;-64
2023/04/16 04:48:36;;;;;;;0.20;0.20;;;;;;;15.18;68.33;102290.88;5031320;28;20065;-64
2023/04/16 04:51:03;;;;;;;0.30;0.30;;;;;;;14.94;69.48;102293.34;5030867;28;20116;-63
2023/04/16 04:53:28;;;;;;;0.30;0.30;;;;;;;14.68;69.33;102296.19;5029453;28;20041;-64
2023/04/16 04:55:54;;;;;;;0.30;0.30;;;;;;;14.89;69.15;102295.03;5029850;28;20077;-64
2023/04/16 04:58:19;;;;;;;0.17;0.17;;;;;;;14.35;70.54;102292.81;5031530;28;20128;-64
2023/04/16 05:00:45;;;;;;;0.20;0.20;;;;;;;13.73;74.71;102301.50;5030670;28;20060;-64
2023/04/16 05:03:11;;;;;;;0.30;0.30;;;;;;;14.87;70.02;102303.38;5033505;28;20037;-63
2023/04/16 05:05:38;;;;;;;0.20;0.20;;;;;;;15.05;69.48;102302.66;5033152;28;20035;-63
2023/04/16 05:08:03;;;;;;;0.30;0.30;;;;;;;15.43;68.31;102305.31;5034089;28;20029;-65
2023/04/16 05:10:29;;;;;;;0.25;0.25;;;;;;;15.14;69.66;102306.72;5034552;28;20029;-64
2023/04/16 05:12:54;;;;;;;0.30;0.30;;;;;;;15.13;69.80;102304.25;5034062;28;20029;-65
2023/04/16 05:15:19;;;;;;;0.35;0.35;;;;;;;15.12;68.93;102308.00;5033748;28;20045;-63
2023/04/16 05:17:45;;;;;;;0.30;0.30;;;;;;;15.18;70.00;102304.41;5033839;28;20472;-63
2023/04/16 05:20:10;;;;;;;0.30;0.30;;;;;;;15.44;67.69;102323.19;5033845;28;20372;-64
2023/04/16 05:22:36;;;;;;;0.30;0.30;;;;;;;15.86;66.66;102316.16;5033951;28;20033;-64
2023/04/16 05:25:02;;;;;;;0.25;0.25;;;;;;;16.09;64.60;102316.31;5033689;28;20409;-65
2023/04/16 05:27:27;;;;;;;0.30;0.30;;;;;;;16.11;65.61;102320.47;5033631;28;20057;-63
2023/04/16 05:29:52;;;;;;;0.20;0.20;;;;;;;15.56;67.44;102322.28;5033601;28;20354;-63
2023/04/16 05:32:18;;;;;;;0.20;0.20;;;;;;;15.95;65.26;102328.34;5033402;28;20050;-64
2023/04/16 05:34:43;;;;;;;0.30;0.30;;;;;;;16.06;64.90;102330.34;5033679;28;20030;-63
2023/04/16 05:37:08;;;;;;;0.35;0.35;;;;;;;16.22;64.47;102335.97;5033455;28;20113;-65
2023/04/16 05:39:34;;;;;;;0.30;0.30;;;;;;;16.74;62.33;102337.25;5033285;28;20523;-64
2023/04/16 05:41:59;;;;;;;0.20;0.20;;;;;;;16.39;63.38;102334.31;5033358;28;20114;-63
2023/04/16 05:44:25;;;;;;;0.28;0.28;;;;;;;16.38;63.45;102338.09;5033383;28;20025;-63
2023/04/16 05:46:50;;;;;;;0.25;0.25;;;;;;;16.45;63.90;102338.03;5033448;28;20053;-63
2023/04/16 05:49:17;;;;;;;0.30;0.30;;;;;;;16.68;63.10;102336.28;5033497;28;20156;-64
2023/04/16 05:51:43;;;;;;;0.30;0.30;;;;;;;15.48;67.30;102349.66;5033330;28;20192;-64
2023/04/16 05:54:08;;;;;;;0.20;0.20;;;;;;;15.33;67.39;102346.38;5033047;28;20037;-63
2023/04/16 05:56:33;;;;;;;0.40;0.40;;;;;;;15.39;68.59;102345.50;5033077;28;20614;-63
2023/04/16 05:58:59;;;;;;;0.40;0.40;;;;;;;15.24;67.86;102346.88;5033148;28;20034;-63
2023/04/16 06:01:24;;;;;;;0.20;0.20;;;;;;;16.29;64.47;102344.06;5033548;28;20045;-65
2023/04/16 06:03:49;;;;;;;0.20;0.20;;;;;;;16.88;62.45;102354.19;5032897;28;20041;-64
2023/04/16 06:06:15;;;;;;;0.30;0.30;;;;;;;16.09;64.93;102348.84;5033366;28;20117;-64
2023/04/16 06:08:40;;;;;;;0.30;0.30;;;;;;;15.72;66.47;102358.81;5032819;28;20095;-64
2023/04/16 06:11:05;;;;;;;0.30;0.30;;;;;;;15.46;67.62;102359.03;5032937;28;20055;-64
2023/04/16 06:13:31;;;;;;;0.20;0.20;;;;;;;14.98;69.91;102354.13;5033208;28;20042;-64
2023/04/16 06:15:56;;;;;;;0.40;0.40;;;;;;;15.54;67.80;102364.19;5037160;28;20039;-64
2023/04/16 06:18:21;;;;;;;0.28;0.28;;;;;;;15.61;66.63;102364.94;5032802;28;20037;-64
2023/04/16 06:20:47;;;;;;;0.30;0.30;;;;;;;15.65;67.55;102361.59;5032551;28;20536;-64
2023/04/16 06:23:12;;;;;;;0.10;0.10;;;;;;;14.85;69.70;102367.75;5032837;28;20496;-64
2023/04/16 06:25:37;;;;;;;0.30;0.30;;;;;;;15.84;67.08;102366.00;5033069;28;20037;-64
2023/04/16 06:28:03;;;;;;;0.28;0.28;;;;;;;16.17;66.07;102373.81;5032817;28;20033;-64
2023/04/16 06:30:28;;;;;;;0.20;0.20;;;;;;;15.95;66.49;102360.88;5032504;28;20033;-64
2023/04/16 06:32:54;;;;;;;0.20;0.20;;;;;;;15.89;66.57;102362.63;5032540;28;20083;-63
2023/04/16 06:35:19;;;;;;;0.40;0.40;;;;;;;15.88;66.72;102371.78;5032224;28;20517;-64
2023/04/16 06:37:45;;;;;;;0.20;0.20;;;;;;;15.76;66.79;102376.31;5032429;28;20112;-64
2023/04/16 06:40:11;;;;;;;0.30;0.30;;;;;;;16.12;65.01;102376.34;5032425;28;20025;-65
2023/04/16 06:42:36;;;;;;;0.20;0.20;;;;;;;15.76;66.88;102371.69;5030312;28;20112;-65
2023/04/16 06:45:02;;;;;;;0.30;0.30;;;;;;;16.22;64.41;102376.66;5031379;28;20033;-64
2023/04/16 06:47:27;;;;;;;0.30;0.30;;;;;;;16.50;63.15;102373.47;5033112;28;20049;-63
2023/04/16 06:49:52;;;;;;;0.20;0.20;;;;;;;16.46;63.41;102378.50;5031150;28;20048;-64
2023/04/16 06:52:18;;;;;;;0.20;0.20;;;;;;;16.54;63.47;102378.22;5031818;28;20528;-63
2023/04/16 06:54:43;;;;;;;0.20;0.20;;;;;;;16.11;64.05;102384.72;5029780;28;20044;-64
2023/04/16 06:57:08;;;;;;;0.40;0.40;;;;;;;16.64;63.26;102383.94;5031218;28;20041;-66
2023/04/16 06:59:34;;;;;;;0.22;0.22;;;;;;;17.31;60.78;102384.69;5031322;28;20029;-63
2023/04/16 07:02:00;;;;;;;0.20;0.20;;;;;;;17.05;61.60;102387.78;5031471;28;20179;-64
2023/04/16 07:04:25;;;;;;;0.30;0.30;;;;;;;16.04;64.24;102389.41;5031723;28;20017;-64
2023/04/16 07:06:50;;;;;;;0.30;0.30;;;;;;;15.23;68.17;102396.69;5031177;28;20688;-65
2023/04/16 07:09:18;;;;;;;0.20;0.20;;;;;;;15.08;68.00;102399.66;5031211;28;20049;-64
2023/04/16 07:11:44;;;;;;;0.28;0.28;;;;;;;16.05;65.67;102399.19;5029254;28;20378;-64
2023/04/16 07:14:09;;;;;;;0.15;0.15;;;;;;;17.25;60.61;102399.22;5030995;28;20029;-64
2023/04/16 07:16:36;;;;;;;0.22;0.22;;;;;;;16.97;60.79;102405.25;5033514;28;20167;-64
2023/04/16 07:19:01;;;;;;;0.30;0.30;;;;;;;17.43;59.71;102401.88;5031254;28;20036;-64
2023/04/16 07:21:27;;;;;;;0.17;0.17;;;;;;;17.30;60.13;102405.59;5031408;28;20025;-64
2023/04/16 07:23:52;;;;;;;0.30;0.30;;;;;;;17.16;60.21;102408.75;5029483;28;20033;-64
2023/04/16 07:26:18;;;;;;;0.38;0.38;;;;;;;16.05;64.00;102410.84;5031182;28;20040;-63
2023/04/16 07:28:43;;;;;;;0.30;0.30;;;;;;;16.59;63.01;102418.22;5031810;28;20025;-64
2023/04/16 07:31:08;;;;;;;0.20;0.20;;;;;;;15.99;63.77;102424.47;5031521;28;20434;-65
2023/04/16 07:33:34;;;;;;;0.30;0.30;;;;;;;15.87;65.55;102428.94;5029538;28;20044;-65
2023/04/16 07:35:59;;;;;;;0.25;0.25;;;;;;;17.01;61.54;102425.44;5030333;28;20036;-66
2023/04/16 07:38:25;;;;;;;0.38;0.38;;;;;;;16.03;65.25;102425.69;5030490;28;20040;-65
2023/04/16 07:40:50;;;;;;;0.20;0.20;;;;;;;16.40;63.81;102432.81;5030232;28;20022;-65
2023/04/16 07:43:15;;;;;;;0.30;0.30;;;;;;;16.18;63.60;102426.16;5031315;28;20017;-63
2023/04/16 07:45:41;;;;;;;0.28;0.28;;;;;;;16.15;64.50;102430.16;5030558;28;20057;-65
2023/04/16 07:48:06;;;;;;;0.10;0.10;;;;;;;17.31;60.55;102431.72;5024079;28;20045;-63
2023/04/16 07:50:32;;;;;;;0.30;0.30;;;;;;;17.18;60.48;102437.34;5024386;28;20057;-64
2023/04/16 07:52:57;;;;;;;0.20;0.20;;;;;;;17.11;61.35;102435.78;5030541;28;20037;-64
2023/04/16 07:55:23;;;;;;;0.30;0.30;;;;;;;17.29;59.83;102439.28;5030405;28;20624;-65
2023/04/16 07:57:48;;;;;;;0.10;0.10;;;;;;;16.95;60.81;102433.69;5030316;28;20117;-65
2023/04/16 08:00:13;;;;;;;0.10;0.10;;;;;;;16.49;63.10;102435.06;5030521;28;20022;-65
2023/04/16 08:02:40;;;;;;;0.10;0.10;;;;;;;16.88;62.23;102435.66;5030596;28;20126;-65
2023/04/16 08:05:06;;;;;;;0.20;0.20;;;;;;;17.22;60.53;102443.13;5030874;28;20461;-64
2023/04/16 08:07:31;;;;;;;0.20;0.20;;;;;;;17.31;60.46;102445.31;5029221;28;20048;-64
2023/04/16 08:09:56;;;;;;;0.22;0.22;;;;;;;17.64;59.03;102442.13;5028439;28;20060;-66
2023/04/16 08:12:22;;;;;;;0.30;0.30;;;;;;;16.86;62.12;102451.34;5030310;28;20029;-66
2023/04/16 08:14:47;;;;;;;0.28;0.28;;;;;;;17.34;60.65;102447.56;5030401;28;20061;-64
2023/04/16 08:17:14;;;;;;;0.28;0.28;;;;;;;16.05;64.40;102461.56;5030627;28;20025;-65
2023/04/16 08:19:40;;;;;;;0.20;0.20;;;;;;;16.67;63.00;102455.94;5030429;28;20112;-64
2023/04/16 08:22:06;;;;;;;0.20;0.20;;;;;;;16.75;62.28;102460.22;5030668;28;20175;-65
2023/04/16 08:24:31;;;;;;;0.30;0.30;;;;;;;17.86;57.99;102458.72;5027322;28;20059;-63
2023/04/16 08:26:57;;;;;;;0.20;0.20;;;;;;;18.31;56.91;102459.84;5030789;28;20046;-63
2023/04/16 08:29:25;;;;;;;0.20;0.20;;;;;;;17.90;58.19;102471.63;5029502;28;20534;-63
2023/04/16 08:31:51;;;;;;;0.22;0.22;;;;;;;17.76;58.24;102474.78;5030111;28;20030;-64
2023/04/16 08:34:16;;;;;;;0.20;0.20;;;;;;;17.80;58.86;102476.81;5030553;28;20026;-63
2023/04/16 08:36:42;;;;;;;0.20;0.20;;;;;;;17.84;58.16;102469.84;5030825;28;20033;-63
2023/04/16 08:39:07;;;;;;;0.20;0.20;;;;;;;18.39;56.82;102470.38;5034413;28;20045;-64
2023/04/16 08:41:35;;;;;;;0.20;0.20;;;;;;;18.79;55.66;102475.94;5034075;28;20030;-64
2023/04/16 08:44:06;;;;;;;0.10;0.10;;;;;;;19.12;54.74;102476.88;5034284;28;20033;-63
2023/04/16 08:46:35;;;;;;;0.20;0.20;;;;;;;18.78;55.27;102482.44;5034555;28;20033;-63
2023/04/16 08:49:04;;;;;;;0.20;0.20;;;;;;;18.91;54.91;102483.00;5034447;28;20033;-63
2023/04/16 08:51:33;;;;;;;0.30;0.30;;;;;;;18.08;56.33;102489.75;5033153;28;20067;-63
2023/04/16 08:54:02;;;;;;;0.20;0.20;;;;;;;18.87;55.09;102487.25;5012528;28;20042;-64
2023/04/16 08:56:30;;;;;;;0.20;0.20;;;;;;;19.38;51.91;102480.97;5014110;28;20042;-63
2023/04/16 08:58:57;;;;;;;0.20;0.20;;;;;;;18.92;52.55;102478.38;5032286;28;20029;-65
2023/04/16 09:01:25;;;;;;;0.10;0.10;;;;;;;19.32;53.83;102484.63;5034518;28;20484;-63
2023/04/16 09:03:51;;;;;;;0.20;0.20;;;;;;;19.40;52.84;102487.00;5030168;28;20076;-64
2023/04/16 09:06:17;;;;;;;0.20;0.20;;;;;;;18.71;54.77;102476.28;5033673;28;20041;-64
2023/04/16 09:08:46;;;;;;;0.20;0.20;;;;;;;18.90;54.17;102485.97;5032914;28;20080;-64
2023/04/16 09:11:12;;;;;;;0.10;0.10;;;;;;;19.59;52.16;102491.22;5034134;28;20420;-64
2023/04/16 09:13:38;;;;;;;0.30;0.30;;;;;;;18.97;53.89;102487.47;5034412;28;20112;-64
2023/04/16 09:16:05;;;;;;;0.20;0.20;;;;;;;18.91;53.87;102479.44;5039648;28;20040;-64
2023/04/16 09:18:31;;;;;;;0.20;0.20;;;;;;;19.53;53.06;102480.44;5053227;28;20043;-63
2023/04/16 09:20:56;;;;;;;0.20;0.20;;;;;;;19.69;51.80;102485.09;5043822;28;20037;-64
2023/04/16 09:23:22;;;;;;;0.10;0.10;;;;;;;19.51;52.57;102485.31;5033625;28;20029;-63
2023/04/16 09:25:47;;;;;;;0.20;0.20;;;;;;;17.56;58.74;102485.97;5033399;28;20073;-64
2023/04/16 09:28:42;;;;;;;0.10;0.10;;;;;;;19.61;53.16;102486.34;5033869;28;20338;-63
2023/04/16 09:31:09;;;;;;;0.10;0.10;;;;;;;19.20;53.21;102492.06;5020000;28;20073;-64
2023/04/16 09:33:34;;;;;;;0.10;0.10;;;;;;;18.35;56.52;102491.78;5030938;28;20040;-63
2023/04/16 09:36:00;;;;;;;0.20;0.20;;;;;;;19.14;53.60;102493.00;5032721;28;20033;-65
2023/04/16 09:38:27;;;;;;;0.30;0.30;;;;;;;18.48;55.70;102488.03;5030445;28;20390;-64
2023/04/16 09:41:08;;;;;;;0.17;0.17;;;;;;;19.22;52.98;102493.44;5026137;28;20038;-65
2023/04/16 09:43:34;;;;;;;;;;;;;;;18.36;56.38;102498.88;5031828;28;20070;-63
2023/04/16 09:45:59;;;;;;;0.17;0.17;;;;;;;18.06;56.87;102500.84;5031453;28;19959;-63
2023/04/16 09:48:32;;;;;;;0.20;0.20;;;;;;;19.33;53.84;102490.94;5032094;28;20041;-64
2023/04/16 09:50:59;;;;;;;0.20;0.20;;;;;;;18.26;55.99;102501.34;5029936;28;20044;-62
2023/04/16 09:53:26;;;;;;;0.30;0.30;;;;;;;18.28;55.95;102495.66;5031728;28;20037;-64
2023/04/16 09:55:56;;;;;;;0.20;0.20;;;;;;;18.43;55.73;102501.53;5031099;28;20038;-62
2023/04/16 09:58:23;;;;;;;0.20;0.20;;;;;;;18.42;55.65;102500.69;5032479;28;20025;-63
2023/04/16 10:00:49;;;;;;;0.10;0.10;;;;;;;18.28;56.29;102499.22;5030986;28;20037;-64
2023/04/16 10:03:14;;;;;;;0.17;0.17;;;;;;;19.57;53.41;102498.81;5029299;28;20080;-64
2023/04/16 10:05:40;;;;;;;0.20;0.20;;;;;;;20.35;50.36;102485.16;5031668;28;20029;-63
2023/04/16 10:08:13;;;;;;;0.10;0.10;;;;;;;21.00;49.58;102486.06;5031309;28;20021;-64
2023/04/16 10:10:39;;;;;;;0.20;0.20;;;;;;;20.19;50.24;102490.59;5029876;28;20082;-64
2023/04/16 10:13:04;;;;;;;0.10;0.10;;;;;;;18.52;54.40;102496.53;5029653;28;20493;-64
2023/04/16 10:15:30;;;;;;;0.22;0.22;;;;;;;18.45;55.57;102491.22;5031470;28;20163;-64
2023/04/16 10:17:56;;;;;;;0.20;0.20;;;;;;;19.74;52.25;102501.56;5031812;28;20397;-63
2023/04/16 10:20:22;;;;;;;0.10;0.10;;;;;;;19.55;52.70;102497.38;5031322;28;20421;-64
2023/04/16 10:22:48;;;;;;;0.13;0.13;;;;;;;19.79;51.88;102501.66;5031337;28;20029;-63
2023/04/16 10:25:15;;;;;;;0.10;0.10;;;;;;;20.95;49.18;102493.38;5031758;28;20059;-63
2023/04/16 10:27:42;;;;;;;0.20;0.20;;;;;;;20.63;49.48;102495.13;5031112;28;20036;-64
2023/04/16 10:30:09;;;;;;;0.10;0.10;;;;;;;20.95;49.58;102499.66;5030693;28;20540;-64
2023/04/16 10:32:36;;;;;;;0.20;0.20;;;;;;;19.99;50.70;102502.81;5030637;28;20116;-63
2023/04/16 10:35:02;;;;;;;0.08;0.08;;;;;;;20.93;48.81;102498.28;5030257;28;20022;-63
2023/04/16 10:37:31;;;;;;;0.10;0.10;;;;;;;21.13;48.74;102500.47;5030866;28;20021;-63
2023/04/16 10:39:58;;;;;;;0.10;0.10;;;;;;;20.71;49.17;102506.44;5029085;28;20029;-63
2023/04/16 10:42:24;;;;;;;0.10;0.10;;;;;;;21.48;47.09;102506.34;5029488;28;20026;-65
2023/04/16 10:44:50;;;;;;;0.10;0.10;;;;;;;19.47;52.36;102514.97;5030874;28;20026;-64
2023/04/16 10:47:16;;;;;;;0.10;0.10;;;;;;;20.30;50.74;102503.34;5030941;28;20056;-64
2023/04/16 10:49:42;;;;;;;0.20;0.20;;;;;;;19.34;52.14;102509.78;5031767;28;20013;-64
2023/04/16 10:52:13;;;;;;;0.17;0.17;;;;;;;20.00;52.13;102504.50;5030800;28;20116;-64
2023/04/16 10:54:39;;;;;;;0.20;0.20;;;;;;;19.92;51.53;102510.34;5030988;28;20046;-64
2023/04/16 10:57:08;;;;;;;0.20;0.20;;;;;;;19.77;52.47;102504.59;5030899;28;20060;-64
2023/04/16 10:59:35;;;;;;;0.20;0.20;;;;;;;20.34;50.58;102501.78;5030619;28;20426;-64
2023/04/16 11:02:06;;;;;;;0.20;0.20;;;;;;;18.64;55.22;102505.53;5030805;28;20037;-64
2023/04/16 11:04:35;;;;;;;;;;;;;;;19.15;55.23;102500.09;5032175;28;20045;-64
2023/04/16 11:07:10;;;;;;;0.20;0.20;;;;;;;20.00;52.45;102493.56;5031085;28;20408;-64
2023/04/16 11:09:45;;;;;;;0.20;0.20;;;;;;;20.17;51.72;102491.66;5028320;28;20357;-63
2023/04/16 11:12:13;;;;;;;0.10;0.10;;;;;;;19.72;52.47;102500.97;5030467;28;20078;-63
2023/04/16 11:14:40;;;;;;;0.10;0.10;;;;;;;19.26;54.87;102502.00;5030687;28;20029;-63
2023/04/16 11:17:05;;;;;;;0.20;0.20;;;;;;;19.38;53.92;102504.69;5029232;28;20038;-65
2023/04/16 11:19:31;;;;;;;0.10;0.10;;;;;;;19.74;53.91;102499.66;5031102;28;20040;-64
2023/04/16 11:21:57;;;;;;;0.10;0.10;;;;;;;20.83;50.67;102501.66;5030298;28;20029;-64